Terminal Aerodrome Forecast
Issued by NWS

Home | Current Version | Previous Version | Text Only | Print | Product List | Glossary On
Versions: 1 2 3 4 5 6 7 8 9 10 11 12 13 14 15 16 17 18 19 20 21 22 23 24 25
000
FTUS46 KPDT 240539
TAFBDN
TAF
KBDN 240539Z 2406/2506 22010KT P6SM VCSH OVC035
     FM241000 20010KT 5SM -SN BKN015 OVC030
      TEMPO 2416/2420 1SM -SN OVC008
     FM242200 32014G24KT P6SM BKN035 BKN070=

USA.gov is the U.S. government's official web portal to all federal, state and local government web resources and services.